Time;durP1;ratioP1;P1;durP2;ratioP2;P2;SDS_P1;SDS_P2;PMS_P1;PMS_P2;Temp;Humidity;BMP_temperature;BMP_pressure;BME280_temperature;BME280_humidity;BME280_pressure;Samples;Min_cycle;Max_cycle;Signal;HPM_P1;HPM_P2
2023/07/09 00:00:50;;;;;;;8.82;7.90;;;22.30;94.90;;;;;;5064326;28;20619;-72
2023/07/09 00:03:18;;;;;;;9.25;8.20;;;22.30;94.80;;;;;;5044877;28;20082;-72
2023/07/09 00:05:47;;;;;;;8.75;7.85;;;22.30;94.90;;;;;;5056296;28;20055;-72
2023/07/09 00:08:29;;;;;;;10.95;8.02;;;22.40;94.90;;;;;;5054502;28;20162;-72
2023/07/09 00:10:56;;;;;;;10.65;8.10;;;22.40;94.80;;;;;;5037913;28;20177;-72
2023/07/09 00:13:23;;;;;;;8.93;8.00;;;22.30;94.80;;;;;;5039673;28;20044;-72
2023/07/09 00:15:50;;;;;;;8.50;7.68;;;22.30;94.90;;;;;;5050035;28;20095;-74
2023/07/09 00:18:16;;;;;;;9.75;7.63;;;22.30;94.90;;;;;;5053002;28;20041;-72
2023/07/09 00:20:43;;;;;;;9.55;8.32;;;22.30;94.90;;;;;;5048340;28;20040;-72
2023/07/09 00:23:16;;;;;;;12.85;7.80;;;22.30;94.90;;;;;;5055943;28;20135;-71
2023/07/09 00:25:44;;;;;;;11.05;7.97;;;22.20;94.80;;;;;;5035702;28;20540;-72
2023/07/09 00:28:17;;;;;;;8.63;7.68;;;22.20;94.70;;;;;;5038167;28;20048;-72
2023/07/09 00:30:44;;;;;;;10.18;8.05;;;22.20;94.70;;;;;;5050171;28;20052;-71
2023/07/09 00:33:19;;;;;;;9.32;7.38;;;22.20;94.80;;;;;;5052789;28;20072;-72
2023/07/09 00:35:48;;;;;;;9.77;8.20;;;22.10;94.90;;;;;;5052018;28;20094;-72
2023/07/09 00:38:22;;;;;;;9.10;8.05;;;22.10;95.10;;;;;;5048857;28;20487;-72
2023/07/09 00:41:17;;;;;;;10.77;8.38;;;22.00;95.00;;;;;;5046362;28;20053;-71
2023/07/09 00:43:44;;;;;;;10.55;8.25;;;21.90;94.70;;;;;;5039701;28;20053;-71
2023/07/09 00:46:27;;;;;;;8.82;7.93;;;21.80;95.20;;;;;;5054311;28;20048;-71
2023/07/09 00:48:57;;;;;;;9.57;8.55;;;21.70;95.30;;;;;;5056055;28;20052;-72
2023/07/09 00:51:24;;;;;;;;;;;21.60;95.90;;;;;;5030711;28;20044;-71
2023/07/09 00:53:53;;;;;;;9.25;7.72;;;21.50;95.90;;;;;;5050379;28;20010;-73
2023/07/09 00:56:37;;;;;;;9.93;8.65;;;21.40;96.60;;;;;;5052295;28;20052;-73
2023/07/09 00:59:10;;;;;;;9.40;8.18;;;21.40;96.40;;;;;;5049725;28;20113;-73
2023/07/09 01:01:36;;;;;;;8.88;8.05;;;21.30;96.80;;;;;;5054097;28;20123;-73
2023/07/09 01:04:03;;;;;;;11.13;8.38;;;21.30;97.00;;;;;;5055799;28;20036;-72
2023/07/09 01:06:44;;;;;;;12.65;8.80;;;21.30;97.40;;;;;;5055259;28;20481;-73
2023/07/09 01:09:10;;;;;;;9.73;8.65;;;21.30;97.40;;;;;;5042713;28;20079;-73
2023/07/09 01:11:38;;;;;;;8.63;7.72;;;21.20;97.80;;;;;;5041079;28;20094;-73
2023/07/09 01:14:07;;;;;;;8.75;7.85;;;21.20;97.90;;;;;;5040314;28;20500;-74
2023/07/09 01:16:47;;;;;;;9.32;7.78;;;21.10;97.90;;;;;;5051886;28;20041;-74
2023/07/09 01:19:16;;;;;;;10.15;8.95;;;21.10;98.10;;;;;;5053284;28;20049;-72
2023/07/09 01:21:42;;;;;;;10.13;8.18;;;21.00;98.30;;;;;;5057400;28;20071;-73
2023/07/09 01:24:14;;;;;;;8.52;7.50;;;20.90;98.90;;;;;;5054812;28;20055;-71
2023/07/09 01:26:40;;;;;;;11.32;8.52;;;20.90;98.80;;;;;;5041561;28;20110;-72
2023/07/09 01:29:06;;;;;;;10.00;8.63;;;20.80;99.10;;;;;;5031562;28;20052;-72
2023/07/09 01:31:32;;;;;;;9.93;8.93;;;20.80;99.20;;;;;;5037741;28;20064;-72
2023/07/09 01:33:58;;;;;;;10.05;8.05;;;20.70;99.40;;;;;;5042573;28;20683;-72
2023/07/09 01:36:24;;;;;;;10.85;8.57;;;20.70;99.50;;;;;;5051730;28;20490;-71
2023/07/09 01:38:53;;;;;;;8.75;7.85;;;20.60;99.80;;;;;;5033738;28;20477;-71
2023/07/09 01:41:19;;;;;;;9.95;8.52;;;20.60;99.70;;;;;;5069858;28;20036;-72
2023/07/09 01:43:45;;;;;;;9.45;8.35;;;20.60;99.70;;;;;;5036313;28;20037;-72
2023/07/09 01:46:14;;;;;;;9.88;7.97;;;20.60;99.70;;;;;;5057422;28;20110;-72
2023/07/09 01:48:41;;;;;;;10.73;8.77;;;20.60;99.40;;;;;;5055133;28;20345;-71
2023/07/09 01:51:12;;;;;;;9.32;8.43;;;20.50;99.40;;;;;;5044346;28;20060;-73
2023/07/09 01:53:40;;;;;;;9.15;8.18;;;20.50;99.50;;;;;;5038554;28;20544;-72
2023/07/09 01:56:09;;;;;;;10.18;8.23;;;20.50;99.70;;;;;;5037184;28;20036;-72
2023/07/09 01:58:35;;;;;;;10.90;8.60;;;20.40;99.90;;;;;;5053764;28;20052;-73
2023/07/09 02:01:01;;;;;;;9.85;8.95;;;20.40;99.90;;;;;;5034620;28;20469;-74
2023/07/09 02:03:27;;;;;;;9.45;8.55;;;20.30;99.90;;;;;;5048055;28;20049;-73
2023/07/09 02:05:54;;;;;;;9.15;8.25;;;20.30;99.90;;;;;;5040373;28;20044;-72
2023/07/09 02:08:20;;;;;;;10.93;9.55;;;20.40;99.90;;;;;;5056202;28;20044;-73
2023/07/09 02:10:48;;;;;;;11.02;9.35;;;20.30;99.90;;;;;;5058078;28;20036;-73
2023/07/09 02:13:14;;;;;;;9.77;8.00;;;20.30;99.90;;;;;;5047409;28;20045;-73
2023/07/09 02:15:43;;;;;;;10.27;8.68;;;20.30;99.90;;;;;;5047673;28;20512;-73
2023/07/09 02:18:10;;;;;;;10.73;8.57;;;20.30;99.90;;;;;;5037739;28;20079;-72
2023/07/09 02:20:35;;;;;;;10.93;9.82;;;20.30;99.90;;;;;;5046094;28;20043;-72
2023/07/09 02:23:02;;;;;;;8.93;7.97;;;20.20;99.90;;;;;;5050313;28;20041;-72
2023/07/09 02:25:28;;;;;;;15.60;8.80;;;20.20;99.90;;;;;;5061210;28;20060;-73
2023/07/09 02:27:54;;;;;;;10.43;9.05;;;20.20;99.90;;;;;;5035250;28;20044;-73
2023/07/09 02:30:19;;;;;;;10.27;8.65;;;20.10;99.90;;;;;;5034042;28;20040;-73
2023/07/09 02:32:45;;;;;;;10.15;9.05;;;20.10;99.90;;;;;;5026129;28;20044;-73
2023/07/09 02:35:11;;;;;;;9.23;8.32;;;20.10;99.90;;;;;;5052480;28;20039;-71
2023/07/09 02:37:37;;;;;;;9.23;8.23;;;20.00;99.90;;;;;;5053247;28;20487;-71
2023/07/09 02:40:04;;;;;;;10.85;8.82;;;20.00;99.90;;;;;;5042744;28;20072;-72
2023/07/09 02:42:30;;;;;;;9.32;8.32;;;20.00;99.90;;;;;;5041909;28;20041;-71
2023/07/09 02:44:56;;;;;;;10.95;9.02;;;20.00;99.90;;;;;;5042231;28;20090;-72
2023/07/09 02:47:22;;;;;;;9.35;8.43;;;20.00;99.90;;;;;;5053986;28;20045;-71
2023/07/09 02:49:48;;;;;;;10.63;9.00;;;20.10;99.90;;;;;;5053394;28;20079;-71
2023/07/09 02:52:13;;;;;;;9.90;8.90;;;20.00;99.90;;;;;;5053055;28;20048;-72
2023/07/09 02:54:39;;;;;;;10.40;8.52;;;20.00;99.90;;;;;;5050016;28;20044;-72
2023/07/09 02:57:05;;;;;;;10.50;9.40;;;20.00;99.90;;;;;;5053341;28;20510;-73
2023/07/09 02:59:32;;;;;;;10.30;9.20;;;20.00;99.90;;;;;;5045310;28;20055;-71
2023/07/09 03:01:59;;;;;;;10.02;9.10;;;19.90;99.90;;;;;;5052353;28;20059;-72
2023/07/09 03:04:25;;;;;;;9.55;8.65;;;19.90;99.90;;;;;;5055815;28;20052;-72
2023/07/09 03:06:52;;;;;;;10.63;9.43;;;19.80;99.90;;;;;;5054848;28;20509;-72
2023/07/09 03:09:18;;;;;;;11.20;10.10;;;19.80;99.90;;;;;;5051164;28;20062;-72
2023/07/09 03:11:44;;;;;;;9.85;8.85;;;19.80;99.90;;;;;;5048643;28;20060;-72
2023/07/09 03:14:10;;;;;;;10.38;9.20;;;19.80;99.90;;;;;;5048811;28;20561;-72
2023/07/09 03:16:36;;;;;;;12.02;9.20;;;19.70;99.90;;;;;;5051392;28;20045;-72
2023/07/09 03:19:04;;;;;;;10.35;9.32;;;19.70;99.90;;;;;;5042448;28;20056;-73
2023/07/09 03:21:30;;;;;;;11.95;10.85;;;19.70;99.90;;;;;;5050104;28;20499;-72
2023/07/09 03:23:57;;;;;;;10.20;9.20;;;19.70;99.90;;;;;;5057870;28;20048;-72
2023/07/09 03:26:23;;;;;;;9.93;8.93;;;19.70;99.90;;;;;;5040513;28;20510;-72
2023/07/09 03:28:49;;;;;;;11.80;10.05;;;19.70;99.90;;;;;;5048695;28;20127;-72
2023/07/09 03:31:14;;;;;;;12.00;9.18;;;19.70;99.90;;;;;;5046546;28;20036;-72
2023/07/09 03:33:40;;;;;;;11.85;9.13;;;19.70;99.90;;;;;;5039015;28;20683;-72
2023/07/09 03:36:06;;;;;;;10.40;9.23;;;19.70;99.90;;;;;;5037875;28;20048;-72
2023/07/09 03:38:32;;;;;;;10.35;9.40;;;19.70;99.90;;;;;;5050362;28;20041;-72
2023/07/09 03:40:58;;;;;;;10.23;9.13;;;19.80;99.90;;;;;;5044332;28;20144;-73
2023/07/09 03:43:24;;;;;;;12.13;9.70;;;19.80;99.90;;;;;;5057189;28;20048;-73
2023/07/09 03:45:53;;;;;;;11.35;10.25;;;19.80;99.90;;;;;;5043139;28;20124;-72
2023/07/09 03:48:19;;;;;;;12.05;9.65;;;19.80;99.90;;;;;;5053748;28;20067;-72
2023/07/09 03:50:47;;;;;;;10.02;9.13;;;19.80;99.90;;;;;;5049375;28;20071;-73
2023/07/09 03:53:14;;;;;;;11.10;9.85;;;19.80;99.90;;;;;;5057738;28;20041;-73
2023/07/09 03:55:40;;;;;;;11.23;10.10;;;19.80;99.90;;;;;;5055258;28;20032;-73
2023/07/09 03:58:06;;;;;;;10.88;9.65;;;19.80;99.90;;;;;;5051545;28;20408;-73
2023/07/09 04:00:33;;;;;;;10.20;9.20;;;19.80;99.90;;;;;;5033332;28;20426;-71
2023/07/09 04:02:59;;;;;;;11.00;9.90;;;19.90;99.90;;;;;;5043765;28;20109;-72
2023/07/09 04:05:26;;;;;;;11.32;10.20;;;19.90;99.90;;;;;;5038412;28;20050;-72
2023/07/09 04:07:53;;;;;;;11.55;10.15;;;19.90;99.90;;;;;;5041215;28;20052;-72
2023/07/09 04:10:19;;;;;;;10.77;9.68;;;19.90;99.90;;;;;;5049817;28;20060;-72
2023/07/09 04:12:45;;;;;;;10.57;9.23;;;19.90;99.90;;;;;;5053432;28;20044;-72
2023/07/09 04:15:14;;;;;;;11.50;10.30;;;19.90;99.90;;;;;;5049179;28;20380;-72
2023/07/09 04:17:41;;;;;;;11.80;9.85;;;20.00;99.90;;;;;;5036583;28;20089;-73
2023/07/09 04:20:09;;;;;;;12.50;11.20;;;20.00;99.90;;;;;;5046922;28;20644;-73
2023/07/09 04:22:36;;;;;;;12.35;10.52;;;20.00;99.90;;;;;;5039023;28;20037;-72
2023/07/09 04:25:03;;;;;;;12.70;9.93;;;20.10;99.90;;;;;;5045352;28;20048;-73
2023/07/09 04:27:30;;;;;;;12.23;9.35;;;20.10;99.90;;;;;;5033442;28;20056;-72
2023/07/09 04:29:56;;;;;;;11.38;9.90;;;20.20;99.90;;;;;;5050277;28;20491;-72
2023/07/09 04:32:21;;;;;;;12.13;10.93;;;20.10;99.90;;;;;;5048682;28;20041;-72
2023/07/09 04:34:47;;;;;;;11.77;9.50;;;20.20;99.90;;;;;;5052329;28;20426;-72
2023/07/09 04:37:16;;;;;;;11.10;9.85;;;20.30;99.90;;;;;;5045378;28;20045;-72
2023/07/09 04:39:43;;;;;;;11.35;10.20;;;20.30;99.90;;;;;;5055845;28;20044;-72
2023/07/09 04:42:12;;;;;;;13.60;10.02;;;20.40;99.90;;;;;;5055045;28;20072;-72
2023/07/09 04:44:38;;;;;;;15.93;10.82;;;20.40;99.90;;;;;;5038757;28;20049;-72
2023/07/09 04:47:04;;;;;;;11.55;10.10;;;20.40;99.90;;;;;;5032800;28;20049;-72
2023/07/09 04:49:30;;;;;;;11.90;10.52;;;20.50;99.90;;;;;;5049932;28;20125;-72
2023/07/09 04:51:56;;;;;;;12.48;10.40;;;20.50;99.90;;;;;;5042176;28;20499;-71
2023/07/09 04:54:23;;;;;;;12.38;10.35;;;20.50;99.90;;;;;;5041977;28;20052;-72
2023/07/09 04:56:49;;;;;;;15.02;10.60;;;20.60;99.90;;;;;;5056960;28;20083;-72
2023/07/09 04:59:15;;;;;;;11.40;10.27;;;20.70;99.90;;;;;;5050966;28;20477;-72
2023/07/09 05:01:40;;;;;;;12.68;9.65;;;20.70;99.90;;;;;;5056651;28;20052;-72
2023/07/09 05:04:06;;;;;;;13.88;10.85;;;20.80;99.90;;;;;;5042154;28;20097;-72
2023/07/09 05:06:33;;;;;;;12.38;10.23;;;20.90;99.90;;;;;;5049203;28;20033;-72
2023/07/09 05:08:59;;;;;;;13.88;10.48;;;20.90;99.90;;;;;;5036169;28;20053;-72
2023/07/09 05:11:25;;;;;;;13.30;9.98;;;21.00;99.90;;;;;;5039966;28;20044;-73
2023/07/09 05:13:51;;;;;;;10.77;9.68;;;21.10;99.90;;;;;;5054778;28;20167;-73
2023/07/09 05:16:16;;;;;;;11.77;10.57;;;21.10;99.90;;;;;;5041303;28;20067;-72
2023/07/09 05:18:43;;;;;;;13.20;10.13;;;21.20;99.90;;;;;;5039832;28;20079;-72
2023/07/09 05:21:08;;;;;;;12.77;10.50;;;21.30;99.90;;;;;;5056376;28;20044;-73
2023/07/09 05:23:34;;;;;;;14.38;9.90;;;21.40;99.90;;;;;;5052938;28;20494;-73
2023/07/09 05:26:01;;;;;;;11.13;9.75;;;21.50;99.90;;;;;;5058760;28;20063;-72
2023/07/09 05:28:28;;;;;;;10.65;9.65;;;21.50;99.90;;;;;;5059738;28;20045;-73
2023/07/09 05:30:54;;;;;;;11.75;9.77;;;21.50;99.90;;;;;;5048205;28;20051;-72
2023/07/09 05:33:20;;;;;;;13.15;10.13;;;21.60;99.90;;;;;;5050719;28;20387;-73
2023/07/09 05:35:46;;;;;;;11.55;10.05;;;21.60;99.90;;;;;;5036772;28;20057;-73
2023/07/09 05:38:12;;;;;;;12.82;9.73;;;21.70;99.90;;;;;;5041189;28;20599;-72
2023/07/09 05:40:38;;;;;;;12.10;10.63;;;21.70;99.90;;;;;;5052064;28;20037;-72
2023/07/09 05:43:04;;;;;;;14.10;10.70;;;21.70;99.90;;;;;;5051399;28;20043;-72
2023/07/09 05:45:31;;;;;;;11.68;10.43;;;21.80;99.90;;;;;;5037471;28;20083;-72
2023/07/09 05:47:58;;;;;;;12.13;10.93;;;21.80;99.90;;;;;;5048590;28;20072;-73
2023/07/09 05:50:24;;;;;;;11.18;10.05;;;21.80;99.90;;;;;;5054869;28;20102;-73
2023/07/09 05:52:50;;;;;;;12.73;11.43;;;21.90;99.90;;;;;;5046889;28;20129;-72
2023/07/09 05:55:16;;;;;;;12.45;11.15;;;21.90;99.90;;;;;;5047426;28;20502;-72
2023/07/09 05:57:42;;;;;;;13.13;11.80;;;21.90;99.90;;;;;;5045180;28;20045;-72
2023/07/09 06:00:09;;;;;;;13.27;11.30;;;21.90;99.90;;;;;;5037559;28;20057;-72
2023/07/09 06:02:35;;;;;;;13.63;12.20;;;22.00;99.90;;;;;;5054865;28;20061;-73
2023/07/09 06:05:01;;;;;;;12.80;11.52;;;21.90;99.90;;;;;;5034004;28;20060;-72
2023/07/09 06:07:27;;;;;;;12.43;11.15;;;22.00;99.90;;;;;;5031073;28;20437;-72
2023/07/09 06:09:53;;;;;;;12.55;11.25;;;22.00;99.90;;;;;;5055129;28;20547;-72
2023/07/09 06:12:19;;;;;;;14.05;11.75;;;22.00;99.90;;;;;;5046972;28;20052;-72
2023/07/09 06:14:46;;;;;;;15.90;13.13;;;22.00;99.90;;;;;;5048355;28;20040;-72
2023/07/09 06:17:12;;;;;;;14.70;11.95;;;22.10;99.90;;;;;;5054041;28;21839;-72
2023/07/09 06:19:38;;;;;;;14.68;13.18;;;22.20;99.90;;;;;;5050652;28;20041;-72
2023/07/09 06:22:05;;;;;;;16.08;13.48;;;22.20;99.90;;;;;;5056610;28;20083;-72
2023/07/09 06:24:31;;;;;;;14.77;12.48;;;22.20;99.90;;;;;;5036837;28;20402;-73
2023/07/09 06:26:56;;;;;;;15.73;12.80;;;22.30;99.90;;;;;;5033562;28;20041;-72
2023/07/09 06:29:23;;;;;;;15.05;12.77;;;22.40;99.90;;;;;;5033787;28;20087;-73
2023/07/09 06:31:48;;;;;;;14.38;12.48;;;22.40;99.90;;;;;;5050034;28;20037;-80
2023/07/09 06:34:14;;;;;;;15.50;13.40;;;22.50;99.90;;;;;;5036504;28;20076;-80
2023/07/09 06:36:40;;;;;;;18.30;14.32;;;22.60;99.90;;;;;;5041852;28;20063;-80
2023/07/09 06:39:06;;;;;;;16.23;12.98;;;22.70;99.90;;;;;;5049910;28;20064;-80
2023/07/09 06:41:38;;;;;;;14.30;12.85;;;22.70;99.90;;;;;;5040795;28;20044;-80
2023/07/09 06:44:08;;;;;;;14.63;12.57;;;22.80;99.90;;;;;;5035914;28;20082;-80
2023/07/09 06:46:34;;;;;;;;;;;22.90;99.90;;;;;;5061194;28;20036;-81
2023/07/09 06:49:00;;;;;;;14.18;12.13;;;23.00;99.90;;;;;;5034397;28;19952;-81
2023/07/09 06:51:26;;;;;;;15.75;13.98;;;23.10;99.90;;;;;;5066652;28;20040;-81
2023/07/09 06:53:52;;;;;;;15.27;13.55;;;23.20;99.90;;;;;;5034788;28;20037;-81
2023/07/09 06:56:18;;;;;;;14.05;12.35;;;23.30;99.90;;;;;;5047064;28;20043;-81
2023/07/09 06:58:45;;;;;;;14.73;13.18;;;23.30;99.90;;;;;;5055920;28;20049;-82
2023/07/09 07:01:12;;;;;;;14.50;12.55;;;23.40;99.90;;;;;;5027955;28;20040;-81
2023/07/09 07:03:38;;;;;;;13.25;11.85;;;23.60;99.90;;;;;;5035405;28;20072;-81
2023/07/09 07:06:08;;;;;;;14.40;12.90;;;23.70;99.90;;;;;;5047755;28;20118;-81
2023/07/09 07:08:34;;;;;;;15.60;13.85;;;23.90;99.90;;;;;;5055472;28;20044;-81
2023/07/09 07:11:03;;;;;;;14.85;12.15;;;24.00;99.90;;;;;;5033732;28;20485;-81
2023/07/09 07:13:30;;;;;;;14.45;13.00;;;24.10;99.90;;;;;;5060766;28;20461;-81
2023/07/09 07:15:56;;;;;;;13.40;12.10;;;24.20;99.90;;;;;;5042578;28;20044;-81
2023/07/09 07:18:21;;;;;;;12.52;11.32;;;24.40;99.90;;;;;;5061768;28;20043;-81
2023/07/09 07:20:47;;;;;;;13.55;11.23;;;24.50;99.90;;;;;;5061047;28;20044;-81
2023/07/09 07:23:13;;;;;;;12.82;11.48;;;24.60;99.90;;;;;;5055945;28;20036;-81
2023/07/09 07:25:39;;;;;;;13.05;10.88;;;24.70;99.90;;;;;;5056703;28;20041;-81
2023/07/09 07:28:04;;;;;;;13.13;11.77;;;24.80;99.90;;;;;;5047381;28;20449;-81
2023/07/09 07:30:30;;;;;;;13.40;10.98;;;24.90;99.90;;;;;;5053715;28;20099;-80
2023/07/09 07:32:56;;;;;;;15.10;12.43;;;25.10;99.90;;;;;;5072129;28;20044;-81
2023/07/09 07:35:22;;;;;;;12.85;11.02;;;25.10;99.90;;;;;;5056234;28;20045;-81
2023/07/09 07:37:48;;;;;;;13.65;11.02;;;25.30;99.90;;;;;;5059845;28;20048;-81
2023/07/09 07:40:13;;;;;;;14.25;11.50;;;25.40;99.90;;;;;;5044979;28;20036;-81
2023/07/09 07:42:39;;;;;;;13.02;11.55;;;25.50;99.90;;;;;;5067983;28;20055;-81
2023/07/09 07:45:07;;;;;;;12.50;10.20;;;25.60;99.90;;;;;;5055541;28;20088;-81
2023/07/09 07:47:33;;;;;;;13.93;10.90;;;25.70;99.90;;;;;;5042262;28;20446;-81
2023/07/09 07:49:59;;;;;;;11.48;10.23;;;25.80;99.90;;;;;;5071028;28;20055;-81
2023/07/09 07:52:25;;;;;;;11.88;10.50;;;26.00;99.90;;;;;;5054926;28;20032;-81
2023/07/09 07:54:52;;;;;;;13.00;10.07;;;26.10;99.90;;;;;;5062098;28;20048;-81
2023/07/09 07:57:18;;;;;;;11.88;9.43;;;26.20;99.90;;;;;;5038760;28;20040;-81
2023/07/09 07:59:46;;;;;;;11.95;9.82;;;26.40;99.90;;;;;;5058931;28;20072;-81
2023/07/09 08:02:14;;;;;;;14.65;9.82;;;26.50;99.90;;;;;;5045945;28;20509;-81
2023/07/09 08:04:41;;;;;;;10.95;9.77;;;26.70;99.90;;;;;;5042430;28;20517;-80
2023/07/09 08:07:08;;;;;;;11.50;9.63;;;26.80;99.90;;;;;;5048101;28;20041;-81
2023/07/09 08:09:35;;;;;;;12.57;9.32;;;27.00;99.90;;;;;;5044457;28;20491;-81
2023/07/09 08:12:05;;;;;;;12.48;9.07;;;27.10;99.90;;;;;;5043608;28;20072;-81
2023/07/09 08:14:30;;;;;;;12.50;9.05;;;27.20;99.90;;;;;;5060071;28;20033;-81
2023/07/09 08:16:56;;;;;;;12.82;9.85;;;27.30;99.50;;;;;;5058773;28;20445;-79
2023/07/09 08:19:22;;;;;;;10.30;9.20;;;27.50;98.50;;;;;;5044853;28;20526;-80
2023/07/09 08:21:48;;;;;;;11.27;9.15;;;27.60;98.80;;;;;;5061525;28;20098;-80
2023/07/09 08:24:16;;;;;;;12.45;9.15;;;27.60;98.00;;;;;;5062791;28;20423;-80
2023/07/09 08:26:42;;;;;;;13.32;8.98;;;27.70;97.30;;;;;;5044486;28;20041;-80
2023/07/09 08:29:08;;;;;;;12.23;9.70;;;27.70;96.10;;;;;;5042722;28;20372;-80
2023/07/09 08:31:34;;;;;;;11.75;9.93;;;27.80;98.50;;;;;;5064545;28;20489;-80
2023/07/09 08:33:59;;;;;;;11.50;8.98;;;27.90;97.70;;;;;;5061796;28;20403;-79
2023/07/09 08:36:25;;;;;;;12.77;9.18;;;27.90;96.00;;;;;;5061436;28;20044;-80
2023/07/09 08:38:51;;;;;;;12.48;9.20;;;27.90;96.50;;;;;;5046383;28;20489;-80
2023/07/09 08:41:26;;;;;;;12.23;8.50;;;28.10;95.80;;;;;;5043256;28;20053;-80
2023/07/09 08:43:58;;;;;;;10.32;8.57;;;28.20;95.10;;;;;;5059815;28;20072;-79
2023/07/09 08:47:05;;;;;;;12.65;8.77;;;28.30;94.90;;;;;;5056382;28;20055;-79
2023/07/09 08:49:59;;;;;;;12.13;9.23;;;28.40;96.30;;;;;;4983744;28;20048;-80
2023/07/09 08:52:35;;;;;;;12.07;8.90;;;28.60;94.90;;;;;;5056430;28;20502;-80
2023/07/09 08:55:08;;;;;;;14.15;7.70;;;28.70;94.50;;;;;;5043689;28;20517;-80
2023/07/09 08:57:40;;;;;;;11.15;9.02;;;28.70;95.20;;;;;;5066218;28;20037;-80
2023/07/09 09:00:27;;;;;;;9.68;8.02;;;28.80;94.90;;;;;;5048829;28;20570;-79
2023/07/09 09:03:00;;;;;;;10.52;8.73;;;28.90;96.30;;;;;;5054023;28;20045;-79
2023/07/09 09:05:26;;;;;;;12.32;8.85;;;29.00;94.80;;;;;;5059506;28;20048;-80
2023/07/09 09:08:27;;;;;;;10.02;8.88;;;29.00;94.60;;;;;;5059975;28;20237;-80
2023/07/09 09:11:21;;;;;;;11.52;8.57;;;29.20;93.90;;;;;;5066462;28;20045;-80
2023/07/09 09:13:50;;;;;;;10.82;8.00;;;29.20;93.10;;;;;;5051417;28;20040;-80
2023/07/09 09:16:36;;;;;;;9.50;7.70;;;29.30;93.70;;;;;;5063570;28;20495;-80
2023/07/09 09:19:06;;;;;;;9.52;7.50;;;29.40;92.70;;;;;;5045022;28;20043;-80
2023/07/09 09:21:35;;;;;;;8.68;6.30;;;29.50;91.80;;;;;;5061147;28;20044;-80
2023/07/09 09:24:34;;;;;;;8.70;7.15;;;29.50;91.40;;;;;;5055847;28;20045;-78
2023/07/09 09:27:00;;;;;;;11.18;7.15;;;29.60;89.90;;;;;;5042040;28;20061;-72
2023/07/09 09:29:26;;;;;;;8.80;6.60;;;29.70;90.60;;;;;;5051132;28;20106;-72
2023/07/09 09:31:55;;;;;;;10.35;7.00;;;29.90;89.40;;;;;;5050347;28;20049;-72
2023/07/09 09:34:25;;;;;;;13.25;6.93;;;30.00;90.70;;;;;;5047857;28;20044;-72
2023/07/09 09:36:50;;;;;;;;;;;30.20;90.40;;;;;;5064176;28;20094;-72
2023/07/09 09:39:17;;;;;;;8.43;6.22;;;30.30;90.90;;;;;;5063156;28;20333;-72
2023/07/09 09:41:44;;;;;;;6.95;6.25;;;30.40;90.10;;;;;;5046639;28;20102;-72
2023/07/09 09:44:24;;;;;;;10.40;7.03;;;30.50;90.30;;;;;;5058995;28;20072;-72
2023/07/09 09:46:50;;;;;;;8.23;6.40;;;30.60;92.60;;;;;;5048453;28;20041;-73
2023/07/09 09:49:16;;;;;;;10.00;6.45;;;30.70;87.80;;;;;;5064562;28;20113;-72
2023/07/09 09:51:44;;;;;;;11.50;6.85;;;30.70;87.30;;;;;;5053702;28;20040;-72
2023/07/09 09:54:24;;;;;;;10.90;6.40;;;30.80;85.90;;;;;;5066048;28;20535;-72
2023/07/09 09:56:52;;;;;;;8.25;6.82;;;30.90;86.40;;;;;;5058324;28;20572;-72
2023/07/09 09:59:24;;;;;;;7.82;6.85;;;30.90;82.90;;;;;;5061243;28;20139;-72
2023/07/09 10:02:00;;;;;;;8.13;6.82;;;31.00;82.20;;;;;;5048033;28;20063;-72
2023/07/09 10:04:27;;;;;;;10.13;6.88;;;31.00;81.30;;;;;;5066985;28;20037;-72
2023/07/09 10:07:02;;;;;;;8.73;6.43;;;31.10;81.80;;;;;;5056547;28;20426;-72
2023/07/09 10:09:34;;;;;;;9.65;6.85;;;31.20;83.30;;;;;;5049125;28;20502;-72
2023/07/09 10:12:18;;;;;;;8.95;6.28;;;31.20;78.70;;;;;;5059398;28;20175;-72
2023/07/09 10:14:58;;;;;;;7.65;5.95;;;31.10;76.60;;;;;;5058041;28;20044;-72
2023/07/09 10:17:56;;;;;;;10.10;6.55;;;31.10;77.40;;;;;;5061890;28;20132;-72
2023/07/09 10:20:25;;;;;;;10.75;6.78;;;31.20;77.20;;;;;;5014296;28;20061;-72
2023/07/09 10:23:12;;;;;;;10.13;6.97;;;31.30;78.30;;;;;;5043891;28;20045;-72
2023/07/09 10:25:47;;;;;;;9.95;6.75;;;31.50;77.60;;;;;;5054946;28;20056;-72
2023/07/09 10:28:28;;;;;;;9.70;6.65;;;31.50;75.30;;;;;;5052992;28;20076;-72
2023/07/09 10:31:11;;;;;;;9.25;6.75;;;31.50;76.70;;;;;;5058982;28;20529;-72
2023/07/09 10:33:45;;;;;;;7.55;6.30;;;31.60;80.30;;;;;;5045451;28;21477;-72
2023/07/09 10:36:29;;;;;;;9.38;5.97;;;31.70;78.50;;;;;;5066738;28;20170;-72
2023/07/09 10:39:11;;;;;;;8.10;6.15;;;31.70;73.30;;;;;;5059483;28;20131;-72
2023/07/09 10:41:40;;;;;;;8.45;6.63;;;31.70;74.40;;;;;;5061351;28;20041;-72
2023/07/09 10:44:18;;;;;;;9.55;6.15;;;31.70;75.70;;;;;;5057099;28;20048;-72
2023/07/09 10:46:51;;;;;;;11.07;6.43;;;31.70;73.70;;;;;;5041946;28;20164;-72
2023/07/09 10:49:18;;;;;;;10.50;6.45;;;31.70;72.30;;;;;;5062874;28;20406;-72
2023/07/09 10:51:57;;;;;;;10.52;6.80;;;31.70;71.70;;;;;;5064603;28;20127;-72
2023/07/09 10:54:32;;;;;;;8.25;6.53;;;31.70;73.30;;;;;;5056158;28;20487;-72
2023/07/09 10:57:08;;;;;;;8.13;6.07;;;31.70;75.50;;;;;;5043150;28;20648;-72
2023/07/09 10:59:37;;;;;;;9.23;6.50;;;31.80;73.90;;;;;;5049249;28;20057;-72
2023/07/09 11:02:18;;;;;;;12.85;6.95;;;31.80;74.60;;;;;;5063789;28;20502;-72
2023/07/09 11:04:55;;;;;;;9.50;6.78;;;31.90;78.70;;;;;;5061187;28;20644;-72
2023/07/09 11:07:34;;;;;;;11.35;7.15;;;31.90;78.20;;;;;;5053754;28;20048;-72
2023/07/09 11:10:05;;;;;;;12.38;6.82;;;31.90;75.80;;;;;;5053874;28;20055;-72
2023/07/09 11:12:39;;;;;;;8.23;6.90;;;32.00;75.30;;;;;;5049259;28;20051;-72
2023/07/09 11:15:12;;;;;;;11.10;7.45;;;32.00;73.60;;;;;;5061396;28;20044;-72
2023/07/09 11:17:43;;;;;;;10.30;6.53;;;32.00;74.70;;;;;;5043002;28;20075;-71
2023/07/09 11:20:20;;;;;;;10.48;6.70;;;32.00;74.70;;;;;;5056595;28;20185;-72
2023/07/09 11:23:01;;;;;;;8.57;5.78;;;32.10;76.30;;;;;;5035860;28;20049;-73
2023/07/09 11:25:45;;;;;;;6.72;5.35;;;32.20;75.00;;;;;;5038621;28;20041;-72
2023/07/09 11:28:11;;;;;;;11.18;5.35;;;32.30;75.00;;;;;;5061159;28;20564;-72
2023/07/09 11:30:51;;;;;;;8.73;5.90;;;32.40;75.50;;;;;;5058138;28;20049;-72
2023/07/09 11:33:27;;;;;;;8.07;6.18;;;32.40;76.50;;;;;;5042917;28;20415;-72
2023/07/09 11:36:06;;;;;;;11.32;5.80;;;32.40;74.30;;;;;;5039836;28;20041;-72
2023/07/09 11:38:44;;;;;;;7.65;6.05;;;32.50;75.40;;;;;;5053393;28;20045;-72
2023/07/09 11:41:46;;;;;;;9.07;6.63;;;32.50;75.40;;;;;;5056418;28;20059;-72
2023/07/09 11:44:19;;;;;;;8.73;6.03;;;32.60;73.30;;;;;;5025924;28;20048;-72
2023/07/09 11:46:59;;;;;;;7.50;6.18;;;32.70;74.90;;;;;;5069528;28;20045;-73
2023/07/09 11:49:27;;;;;;;;;;;32.60;73.40;;;;;;5048200;28;20044;-72
2023/07/09 11:52:02;;;;;;;9.32;5.68;;;32.70;74.10;;;;;;5059995;28;20031;-72
2023/07/09 11:54:27;;;;;;;8.88;5.78;;;32.80;73.80;;;;;;5055787;28;20113;-72
2023/07/09 11:56:59;;;;;;;7.85;5.90;;;32.90;74.90;;;;;;5045599;28;20044;-72
2023/07/09 11:59:25;;;;;;;9.05;5.70;;;33.00;73.10;;;;;;5054742;28;20494;-72
2023/07/09 12:01:54;;;;;;;9.63;5.88;;;32.90;71.50;;;;;;5053357;28;20050;-72
2023/07/09 12:04:27;;;;;;;9.57;5.32;;;33.00;72.70;;;;;;5037820;28;20049;-72
2023/07/09 12:06:59;;;;;;;8.93;5.80;;;33.00;72.20;;;;;;5054837;28;20449;-72
2023/07/09 12:09:31;;;;;;;7.82;5.30;;;33.00;69.80;;;;;;5064612;28;20492;-72
2023/07/09 12:11:57;;;;;;;8.43;6.10;;;33.00;71.90;;;;;;5038960;28;20481;-72
2023/07/09 12:14:24;;;;;;;9.52;5.95;;;33.00;72.20;;;;;;5054626;28;20040;-72
2023/07/09 12:16:51;;;;;;;7.60;5.75;;;33.00;71.60;;;;;;5053423;28;20055;-72
2023/07/09 12:19:20;;;;;;;6.95;5.28;;;33.10;73.30;;;;;;5072113;28;20396;-72
2023/07/09 12:21:50;;;;;;;9.38;5.68;;;33.20;72.40;;;;;;5042417;28;20487;-73
2023/07/09 12:24:26;;;;;;;10.07;5.15;;;33.20;70.60;;;;;;5037145;28;20132;-72
2023/07/09 12:27:00;;;;;;;8.68;5.15;;;33.20;69.60;;;;;;5055458;28;20044;-72
2023/07/09 12:29:28;;;;;;;9.18;5.47;;;33.20;69.80;;;;;;5060913;28;20705;-72
2023/07/09 12:32:02;;;;;;;7.82;4.53;;;33.20;70.40;;;;;;5065193;28;20055;-72
2023/07/09 12:34:31;;;;;;;7.97;4.75;;;33.30;71.60;;;;;;5067522;28;20763;-72
2023/07/09 12:36:58;;;;;;;6.80;5.13;;;33.40;71.00;;;;;;5043693;28;20490;-72
2023/07/09 12:39:27;;;;;;;7.78;5.32;;;33.40;67.80;;;;;;5053451;28;20668;-72
2023/07/09 12:41:56;;;;;;;7.63;5.20;;;33.30;68.60;;;;;;5070149;28;20051;-72
2023/07/09 12:44:24;;;;;;;9.32;5.40;;;33.40;71.30;;;;;;5063553;28;20091;-72
2023/07/09 12:46:53;;;;;;;8.30;5.13;;;33.40;70.10;;;;;;5061819;28;20106;-72
2023/07/09 12:49:25;;;;;;;7.28;5.00;;;33.40;68.30;;;;;;5046903;28;20102;-72